createdAt,value
2019-02-24T00:01:32.509Z,45.70
2019-02-24T00:03:59.977Z,45.30
2019-02-24T00:06:27.365Z,45.60
2019-02-24T00:08:55.055Z,46.20
2019-02-24T00:11:22.341Z,46.20
2019-02-24T00:13:49.752Z,46.00
2019-02-24T00:16:17.483Z,45.70
2019-02-24T00:18:44.881Z,45.90
2019-02-24T00:21:12.271Z,46.00
2019-02-24T00:23:39.693Z,45.30
2019-02-24T00:26:06.999Z,45.70
2019-02-24T00:28:34.437Z,45.80
2019-02-24T00:31:01.862Z,45.90
2019-02-24T00:33:29.148Z,45.40
2019-02-24T00:35:56.447Z,45.60
2019-02-24T00:38:23.847Z,45.80
2019-02-24T00:40:51.243Z,45.20
2019-02-24T00:43:18.634Z,45.20
2019-02-24T00:45:46.404Z,45.40
2019-02-24T00:48:13.841Z,44.80
2019-02-24T00:50:41.244Z,44.80
2019-02-24T00:53:08.544Z,45.50
2019-02-24T00:55:35.953Z,45.00
2019-02-24T00:58:03.293Z,45.30
2019-02-24T01:00:30.729Z,45.10
2019-02-24T01:02:58.186Z,45.40
2019-02-24T01:05:25.599Z,45.40
2019-02-24T01:07:52.914Z,45.30
2019-02-24T01:10:20.239Z,44.70
2019-02-24T01:12:47.563Z,44.80
2019-02-24T01:15:14.876Z,44.70
2019-02-24T01:17:42.638Z,44.60
2019-02-24T01:20:10.178Z,44.80
2019-02-24T01:22:37.834Z,44.60
2019-02-24T01:25:05.319Z,44.50
2019-02-24T01:27:32.619Z,45.20
2019-02-24T01:29:59.923Z,44.80
2019-02-24T01:32:27.326Z,44.80
2019-02-24T01:34:54.662Z,45.00
2019-02-24T01:37:22.080Z,45.10
2019-02-24T01:39:49.432Z,44.90
2019-02-24T01:42:16.827Z,45.20
2019-02-24T01:44:44.278Z,46.20
2019-02-24T01:47:11.784Z,44.60
2019-02-24T01:49:39.069Z,45.30
2019-02-24T01:52:06.373Z,44.90
2019-02-24T01:54:34.113Z,45.20
2019-02-24T01:57:01.531Z,45.10
2019-02-24T01:59:28.930Z,45.40
2019-02-24T02:01:56.343Z,45.10
2019-02-24T02:04:23.747Z,45.00
2019-02-24T02:06:51.513Z,44.90
2019-02-24T02:09:18.903Z,45.20
2019-02-24T02:11:46.355Z,45.20
2019-02-24T02:14:13.744Z,45.40
2019-02-24T02:16:41.069Z,46.00
2019-02-24T02:19:08.445Z,45.30
2019-02-24T02:21:35.768Z,45.10
2019-02-24T02:24:03.190Z,45.50
2019-02-24T02:26:30.473Z,45.90
2019-02-24T02:28:57.776Z,45.90
2019-02-24T02:31:25.182Z,45.90
2019-02-24T02:33:52.472Z,46.00
2019-02-24T02:36:19.874Z,46.20
2019-02-24T02:38:47.277Z,46.40
2019-02-24T02:41:14.556Z,47.20
2019-02-24T02:43:41.865Z,46.50
2019-02-24T02:46:09.321Z,47.00
2019-02-24T02:48:36.709Z,47.50
2019-02-24T02:51:04.135Z,47.20
2019-02-24T02:53:31.515Z,47.10
2019-02-24T02:55:58.811Z,47.10
2019-02-24T02:58:26.226Z,47.50
2019-02-24T03:00:53.487Z,48.40
2019-02-24T03:03:21.199Z,48.00
2019-02-24T03:06:08.465Z,48.20
2019-02-24T03:08:46.547Z,48.00
2019-02-24T03:11:14.155Z,47.80
2019-02-24T03:13:41.554Z,48.50
2019-02-24T03:16:08.853Z,47.60
2019-02-24T03:18:36.246Z,48.20
2019-02-24T03:21:03.553Z,48.90
2019-02-24T03:23:30.846Z,48.20
2019-02-24T03:25:58.152Z,48.60
2019-02-24T03:28:25.554Z,48.60
2019-02-24T03:30:52.868Z,49.30
2019-02-24T03:33:20.266Z,49.40
2019-02-24T03:35:47.648Z,48.90
2019-02-24T03:38:15.041Z,48.40
2019-02-24T03:40:42.337Z,49.10
2019-02-24T03:43:09.770Z,49.60
2019-02-24T03:45:37.046Z,49.90
2019-02-24T03:48:04.829Z,49.80
2019-02-24T03:50:32.205Z,49.80
2019-02-24T03:52:59.544Z,50.20
2019-02-24T03:55:26.905Z,50.60
2019-02-24T03:57:54.218Z,51.10
2019-02-24T04:00:21.599Z,51.30
2019-02-24T04:02:48.917Z,51.40
2019-02-24T04:05:17.228Z,51.70
2019-02-24T04:07:44.525Z,51.30
2019-02-24T04:10:11.807Z,51.60
2019-02-24T04:12:39.189Z,51.30
2019-02-24T04:15:06.509Z,51.70
2019-02-24T04:17:33.820Z,51.10
2019-02-24T04:20:01.120Z,51.60
2019-02-24T04:22:28.477Z,52.00
2019-02-24T04:24:55.892Z,52.30
2019-02-24T04:27:23.258Z,52.10
2019-02-24T04:29:50.580Z,52.10
2019-02-24T04:32:18.026Z,52.30
2019-02-24T04:34:45.490Z,52.00
2019-02-24T04:37:12.800Z,52.80
2019-02-24T04:39:40.176Z,53.20
2019-02-24T04:42:07.450Z,52.70
2019-02-24T04:44:34.807Z,53.10
2019-02-24T04:47:02.195Z,53.00
2019-02-24T04:49:29.608Z,53.40
2019-02-24T04:51:56.999Z,53.80
2019-02-24T04:54:24.602Z,53.70
2019-02-24T04:56:51.876Z,53.90
2019-02-24T04:59:19.275Z,53.80
2019-02-24T05:01:46.670Z,53.90
2019-02-24T05:04:14.042Z,54.00
2019-02-24T05:06:41.472Z,54.00
2019-02-24T05:09:08.759Z,53.80
2019-02-24T05:11:36.151Z,53.60
2019-02-24T05:14:03.545Z,53.80
2019-02-24T05:16:30.942Z,54.20
2019-02-24T05:18:58.330Z,54.20
2019-02-24T05:21:25.736Z,53.90
2019-02-24T05:23:52.949Z,53.60
2019-02-24T05:26:20.344Z,53.80
2019-02-24T05:28:47.714Z,53.70
2019-02-24T05:31:15.117Z,53.40
2019-02-24T05:33:42.494Z,54.00
2019-02-24T05:36:09.818Z,54.30
2019-02-24T05:38:37.112Z,54.20
2019-02-24T05:41:05.077Z,54.20
2019-02-24T05:43:32.474Z,53.70
2019-02-24T05:45:59.933Z,53.60
2019-02-24T05:48:27.329Z,53.80
2019-02-24T05:50:54.749Z,54.20
2019-02-24T05:53:22.150Z,53.80
2019-02-24T05:55:49.607Z,53.70
2019-02-24T05:58:17.157Z,53.80
2019-02-24T06:00:44.537Z,53.80
2019-02-24T06:03:11.975Z,54.00
2019-02-24T06:05:39.398Z,54.90
2019-02-24T06:08:06.718Z,55.10
2019-02-24T06:10:34.013Z,55.10
2019-02-24T06:13:01.306Z,55.60
2019-02-24T06:15:28.600Z,55.40
2019-02-24T06:17:55.993Z,55.60
2019-02-24T06:20:23.290Z,55.00
2019-02-24T06:22:50.625Z,55.30
2019-02-24T06:25:17.967Z,55.30
2019-02-24T06:27:45.353Z,55.40
2019-02-24T06:30:12.683Z,55.40
2019-02-24T06:32:40.069Z,55.10
2019-02-24T06:35:07.444Z,54.90
2019-02-24T06:37:34.858Z,55.20
2019-02-24T06:40:02.310Z,55.10
2019-02-24T06:42:29.954Z,55.40
2019-02-24T06:44:57.232Z,55.30
2019-02-24T06:47:24.565Z,55.80
2019-02-24T06:49:51.973Z,55.50
2019-02-24T06:52:23.091Z,54.90
2019-02-24T06:54:50.390Z,55.20
2019-02-24T06:57:18.178Z,54.90
2019-02-24T06:59:45.567Z,55.70
2019-02-24T07:02:13.291Z,56.00
2019-02-24T07:04:40.725Z,55.70
2019-02-24T07:07:08.495Z,55.80
2019-02-24T07:09:35.811Z,56.10
2019-02-24T07:12:03.191Z,56.40
2019-02-24T07:14:30.491Z,56.50
2019-02-24T07:16:57.796Z,55.90
2019-02-24T07:19:25.246Z,56.00
2019-02-24T07:21:52.630Z,56.10
2019-02-24T07:24:19.984Z,55.80
2019-02-24T07:26:47.323Z,56.90
2019-02-24T07:29:14.685Z,56.30
2019-02-24T07:31:42.146Z,56.80
2019-02-24T07:34:09.513Z,56.70
2019-02-24T07:36:36.866Z,56.50
2019-02-24T07:39:04.760Z,56.80
2019-02-24T07:41:32.152Z,56.10
2019-02-24T07:43:59.941Z,56.80
2019-02-24T07:46:27.722Z,56.00
2019-02-24T07:48:55.105Z,56.80
2019-02-24T07:51:22.431Z,57.10
2019-02-24T07:53:50.176Z,56.30
2019-02-24T07:56:17.584Z,56.30
2019-02-24T07:58:44.986Z,56.00
2019-02-24T08:01:12.403Z,55.80
2019-02-24T08:03:39.777Z,56.10
2019-02-24T08:06:07.191Z,56.50
2019-02-24T08:08:34.649Z,56.70
2019-02-24T08:11:02.368Z,57.30
2019-02-24T08:13:29.885Z,55.50
2019-02-24T08:15:57.261Z,56.00
2019-02-24T08:18:24.567Z,56.50
2019-02-24T08:20:51.879Z,56.00
2019-02-24T08:23:19.280Z,55.60
2019-02-24T08:25:46.905Z,55.50
2019-02-24T08:28:14.274Z,55.30
2019-02-24T08:30:42.106Z,55.50
2019-02-24T08:33:09.619Z,55.40
2019-02-24T08:35:36.983Z,55.30
2019-02-24T08:38:04.381Z,55.20
2019-02-24T08:40:31.803Z,55.40
2019-02-24T08:42:59.246Z,55.20
2019-02-24T08:45:26.733Z,55.40
2019-02-24T08:47:54.777Z,55.20
2019-02-24T08:50:22.104Z,54.60
2019-02-24T08:52:49.562Z,54.00
2019-02-24T08:55:17.022Z,54.00
2019-02-24T08:57:44.469Z,54.30
2019-02-24T09:00:11.918Z,53.80
2019-02-24T09:02:39.343Z,53.90
2019-02-24T09:05:06.857Z,52.10
2019-02-24T09:07:34.289Z,52.70
2019-02-24T09:10:01.702Z,52.30
2019-02-24T09:12:29.419Z,52.70
2019-02-24T09:14:56.748Z,52.70
2019-02-24T09:17:24.247Z,52.70
2019-02-24T09:19:51.680Z,52.20
2019-02-24T09:22:19.168Z,51.40
2019-02-24T09:24:46.679Z,51.90
2019-02-24T09:27:14.759Z,51.30
2019-02-24T09:29:42.065Z,51.30
2019-02-24T09:32:09.515Z,50.50
2019-02-24T09:34:36.979Z,50.80
2019-02-24T09:37:04.401Z,50.50
2019-02-24T09:39:31.833Z,49.50
2019-02-24T09:41:59.346Z,47.20
2019-02-24T09:44:26.788Z,46.40
2019-02-24T09:46:54.234Z,45.20
2019-02-24T09:49:21.662Z,44.60
2019-02-24T09:51:49.465Z,44.00
2019-02-24T09:54:16.920Z,43.10
2019-02-24T09:56:44.422Z,41.00
2019-02-24T09:59:11.827Z,39.40
2019-02-24T10:01:39.155Z,40.00
2019-02-24T10:04:06.953Z,40.20
2019-02-24T10:06:34.755Z,38.80
2019-02-24T10:09:03.086Z,39.70
2019-02-24T10:11:30.438Z,36.20
2019-02-24T10:13:57.806Z,35.00
2019-02-24T10:16:25.546Z,32.70
2019-02-24T10:18:53.051Z,33.10
2019-02-24T10:21:20.448Z,32.00
2019-02-24T10:23:47.894Z,32.20
2019-02-24T10:26:15.370Z,30.80
2019-02-24T10:28:42.828Z,30.20
2019-02-24T10:31:19.430Z,29.40
2019-02-24T10:33:39.683Z,28.00
2019-02-24T10:36:06.966Z,27.80
2019-02-24T10:38:34.288Z,26.30
2019-02-24T10:41:01.792Z,25.80
2019-02-24T10:43:29.248Z,26.60
2019-02-24T10:45:56.757Z,24.90
2019-02-24T10:48:24.620Z,23.20
2019-02-24T10:50:52.080Z,22.20
2019-02-24T10:53:19.529Z,19.70
2019-02-24T10:55:46.981Z,19.10
2019-02-24T10:58:14.414Z,18.20
2019-02-24T11:00:41.869Z,18.70
2019-02-24T11:03:09.686Z,17.30
2019-02-24T11:05:37.534Z,17.00
2019-02-24T11:08:04.886Z,16.50
2019-02-24T11:10:32.375Z,17.20
2019-02-24T11:12:59.690Z,15.10
2019-02-24T11:15:26.995Z,15.80
2019-02-24T11:17:54.444Z,16.90
2019-02-24T11:20:21.934Z,16.90
2019-02-24T11:22:49.608Z,17.20
2019-02-24T11:25:17.062Z,17.70
2019-02-24T11:27:44.437Z,18.70
2019-02-24T11:30:12.014Z,20.30
2019-02-24T11:32:39.463Z,21.90
2019-02-24T11:35:07.432Z,22.40
2019-02-24T11:37:37.374Z,20.70
2019-02-24T11:40:05.904Z,19.20
2019-02-24T11:42:33.384Z,19.00
2019-02-24T11:45:01.489Z,19.80
2019-02-24T11:47:28.953Z,21.00
2019-02-24T11:49:56.460Z,19.80
2019-02-24T11:52:23.943Z,20.10
2019-02-24T11:54:51.403Z,19.90
2019-02-24T11:57:19.359Z,20.00
2019-02-24T11:59:46.796Z,19.40
2019-02-24T12:02:14.562Z,17.90
2019-02-24T12:04:45.864Z,18.30
2019-02-24T12:07:13.264Z,18.90
2019-02-24T12:09:40.608Z,19.20
2019-02-24T12:12:08.403Z,19.90
2019-02-24T12:14:35.871Z,20.70
2019-02-24T12:17:03.337Z,20.90
2019-02-24T12:19:30.848Z,21.80
2019-02-24T12:21:58.361Z,22.10
2019-02-24T12:24:25.810Z,21.00
2019-02-24T12:26:53.402Z,21.10
2019-02-24T12:29:20.859Z,20.20
2019-02-24T12:31:56.219Z,19.60
2019-02-24T12:34:17.453Z,20.60
2019-02-24T12:36:44.933Z,22.50
2019-02-24T12:39:12.367Z,23.30
2019-02-24T12:41:39.887Z,23.90
2019-02-24T12:44:07.780Z,24.90
2019-02-24T12:46:36.742Z,25.70
2019-02-24T12:49:04.186Z,26.00
2019-02-24T12:51:31.644Z,27.00
2019-02-24T12:53:59.074Z,26.70
2019-02-24T12:56:26.944Z,27.20
2019-02-24T12:58:54.427Z,28.00
2019-02-24T13:01:21.941Z,27.40
2019-02-24T13:03:49.423Z,28.50
2019-02-24T13:06:17.008Z,28.90
2019-02-24T13:08:44.830Z,28.50
2019-02-24T13:11:12.247Z,28.00
2019-02-24T13:13:39.758Z,27.10
2019-02-24T13:16:07.157Z,27.40
2019-02-24T13:18:36.764Z,27.20
2019-02-24T13:21:04.059Z,27.60
2019-02-24T13:23:31.498Z,27.70
2019-02-24T13:25:59.058Z,27.10
2019-02-24T13:28:26.557Z,26.60
2019-02-24T13:30:53.997Z,25.80
2019-02-24T13:33:21.540Z,26.20
2019-02-24T13:35:49.036Z,25.10
2019-02-24T13:38:16.453Z,25.60
2019-02-24T13:40:45.138Z,24.90
2019-02-24T13:43:12.842Z,24.00
2019-02-24T13:45:40.322Z,23.90
2019-02-24T13:48:08.949Z,23.30
2019-02-24T13:50:36.518Z,24.00
2019-02-24T13:53:04.626Z,24.40
2019-02-24T13:55:32.076Z,24.60
2019-02-24T13:57:59.609Z,24.00
2019-02-24T14:00:27.059Z,23.90
2019-02-24T14:02:54.511Z,23.40
2019-02-24T14:05:21.941Z,22.80
2019-02-24T14:07:49.527Z,22.60
2019-02-24T14:10:16.963Z,22.60
2019-02-24T14:12:44.432Z,21.80
2019-02-24T14:15:12.221Z,21.70
2019-02-24T14:17:39.997Z,20.70
2019-02-24T14:20:08.594Z,19.50
2019-02-24T14:22:36.076Z,20.30
2019-02-24T14:25:04.189Z,18.50
2019-02-24T14:27:31.793Z,19.50
2019-02-24T14:29:59.269Z,19.50
2019-02-24T14:32:32.867Z,19.70
2019-02-24T14:34:56.018Z,20.80
2019-02-24T14:37:23.487Z,20.00
2019-02-24T14:39:50.955Z,20.80
2019-02-24T14:42:18.425Z,21.90
2019-02-24T14:44:45.891Z,23.00
2019-02-24T14:47:13.398Z,23.40
2019-02-24T14:49:40.868Z,22.90
2019-02-24T14:52:08.341Z,22.70
2019-02-24T14:54:35.756Z,21.50
2019-02-24T14:57:03.201Z,21.40
2019-02-24T14:59:30.680Z,21.10
2019-02-24T15:01:58.205Z,20.80
2019-02-24T15:04:25.670Z,21.70
2019-02-24T15:06:53.197Z,22.90
2019-02-24T15:09:23.748Z,24.00
2019-02-24T15:11:51.193Z,24.50
2019-02-24T15:14:18.694Z,23.40
2019-02-24T15:16:46.172Z,24.30
2019-02-24T15:19:13.652Z,25.50
2019-02-24T15:21:41.099Z,24.80
2019-02-24T15:24:08.537Z,25.00
2019-02-24T15:26:36.373Z,25.80
2019-02-24T15:29:03.912Z,26.70
2019-02-24T15:31:31.359Z,27.00
2019-02-24T15:33:59.229Z,26.90
2019-02-24T15:36:26.687Z,27.10
2019-02-24T15:38:54.154Z,27.90
2019-02-24T15:41:29.483Z,27.60
2019-02-24T15:43:50.938Z,27.20
2019-02-24T15:46:18.380Z,28.20
2019-02-24T15:48:45.840Z,28.20
2019-02-24T15:51:13.339Z,28.70
2019-02-24T15:53:40.842Z,29.30
2019-02-24T15:56:08.228Z,29.40
2019-02-24T15:58:36.518Z,31.20
2019-02-24T16:01:04.939Z,31.30
2019-02-24T16:03:33.025Z,31.50
2019-02-24T16:06:00.998Z,31.50
2019-02-24T16:08:28.812Z,32.70
2019-02-24T16:10:56.964Z,34.30
2019-02-24T16:13:24.904Z,33.90
2019-02-24T16:15:52.804Z,34.80
2019-02-24T16:18:20.957Z,35.60
2019-02-24T16:20:49.443Z,36.40
2019-02-24T16:23:16.892Z,35.60
2019-02-24T16:25:44.467Z,37.10
2019-02-24T16:28:11.995Z,36.60
2019-02-24T16:30:39.509Z,37.30
2019-02-24T16:33:10.636Z,37.10
2019-02-24T16:35:36.376Z,37.10
2019-02-24T16:38:03.898Z,36.80
2019-02-24T16:40:31.373Z,36.90
2019-02-24T16:42:58.903Z,37.60
2019-02-24T16:45:26.524Z,38.00
2019-02-24T16:47:54.018Z,38.00
2019-02-24T16:50:21.615Z,38.60
2019-02-24T16:52:49.155Z,38.70
2019-02-24T16:55:16.680Z,38.70
2019-02-24T16:57:44.314Z,38.70
2019-02-24T17:00:14.938Z,39.70
2019-02-24T17:02:43.943Z,39.30
2019-02-24T17:05:11.534Z,40.00
2019-02-24T17:07:39.424Z,39.90
2019-02-24T17:10:07.717Z,39.70
2019-02-24T17:12:35.260Z,40.10
2019-02-24T17:15:02.883Z,40.00
2019-02-24T17:17:30.763Z,40.30
2019-02-24T17:19:58.425Z,40.20
2019-02-24T17:22:26.265Z,39.90
2019-02-24T17:24:53.822Z,39.80
2019-02-24T17:27:24.321Z,40.70
2019-02-24T17:29:51.763Z,40.40
2019-02-24T17:32:19.375Z,40.30
2019-02-24T17:34:47.083Z,40.40
2019-02-24T17:37:19.952Z,40.30
2019-02-24T17:39:44.564Z,40.50
2019-02-24T17:42:12.507Z,40.30
2019-02-24T17:44:40.040Z,40.70
2019-02-24T17:47:07.656Z,40.40
2019-02-24T17:49:35.215Z,41.00
2019-02-24T17:52:03.272Z,40.80
2019-02-24T17:54:31.255Z,40.50
2019-02-24T17:56:59.494Z,40.50
2019-02-24T17:59:26.935Z,40.90
2019-02-24T18:01:54.925Z,40.90
2019-02-24T18:04:22.460Z,41.40
2019-02-24T18:06:50.481Z,41.50
2019-02-24T18:09:18.064Z,41.70
2019-02-24T18:11:45.661Z,41.90
2019-02-24T18:14:13.182Z,41.90
2019-02-24T18:16:40.781Z,42.90
2019-02-24T18:19:08.367Z,42.90
2019-02-24T18:21:35.808Z,43.00
2019-02-24T18:24:03.352Z,42.60
2019-02-24T18:26:30.904Z,43.40
2019-02-24T18:29:02.735Z,43.40
2019-02-24T18:31:33.398Z,42.90
2019-02-24T18:34:01.070Z,42.80
2019-02-24T18:36:28.567Z,43.20
2019-02-24T18:38:56.280Z,43.30
2019-02-24T18:41:23.813Z,43.00
2019-02-24T18:43:51.502Z,42.90
2019-02-24T18:46:19.286Z,43.10
2019-02-24T18:48:46.847Z,42.60
2019-02-24T18:51:14.568Z,42.70
2019-02-24T18:53:42.607Z,42.80
2019-02-24T18:56:10.866Z,42.80
2019-02-24T18:58:38.366Z,43.10
2019-02-24T19:01:07.492Z,43.30
2019-02-24T19:03:35.181Z,43.50
2019-02-24T19:06:03.165Z,43.40
2019-02-24T19:08:31.142Z,43.50
2019-02-24T19:10:59.225Z,43.90
2019-02-24T19:13:26.910Z,44.40
2019-02-24T19:15:54.459Z,44.20
2019-02-24T19:18:21.992Z,43.90
2019-02-24T19:20:49.565Z,44.20
2019-02-24T19:23:17.548Z,44.40
2019-02-24T19:25:45.049Z,44.10
2019-02-24T19:28:12.914Z,44.30
2019-02-24T19:30:40.442Z,45.10
2019-02-24T19:33:08.315Z,44.60
2019-02-24T19:35:36.216Z,44.90
2019-02-24T19:38:03.955Z,44.80
2019-02-24T19:40:31.512Z,44.80
2019-02-24T19:42:59.432Z,44.90
2019-02-24T19:45:27.448Z,44.90
2019-02-24T19:47:55.012Z,45.00
2019-02-24T19:50:23.689Z,45.00
2019-02-24T19:52:51.599Z,45.30
2019-02-24T19:55:19.212Z,45.20
2019-02-24T19:57:46.886Z,45.50
2019-02-24T20:00:17.354Z,45.50
2019-02-24T20:02:44.960Z,45.10
2019-02-24T20:05:12.551Z,45.40
2019-02-24T20:07:40.709Z,45.30
2019-02-24T20:10:08.707Z,45.30
2019-02-24T20:12:36.423Z,45.30
2019-02-24T20:15:05.621Z,45.30
2019-02-24T20:17:33.215Z,45.50
2019-02-24T20:20:00.961Z,45.50
2019-02-24T20:22:28.588Z,45.60
2019-02-24T20:24:56.234Z,45.70
2019-02-24T20:27:24.176Z,45.90
2019-02-24T20:29:52.188Z,46.20
2019-02-24T20:32:19.831Z,46.30
2019-02-24T20:34:47.749Z,46.80
2019-02-24T20:37:15.394Z,46.40
2019-02-24T20:39:42.960Z,46.40
2019-02-24T20:42:10.924Z,46.40
2019-02-24T20:44:38.431Z,46.80
2019-02-24T20:47:06.060Z,46.70
2019-02-24T20:49:33.740Z,46.90
2019-02-24T20:52:01.413Z,47.20
2019-02-24T20:54:29.577Z,47.50
2019-02-24T20:56:57.138Z,47.90
2019-02-24T20:59:26.503Z,48.10
2019-02-24T21:01:55.329Z,48.40
2019-02-24T21:04:22.945Z,48.70
2019-02-24T21:06:50.785Z,48.60
2019-02-24T21:09:18.303Z,48.90
2019-02-24T21:11:45.852Z,48.00
2019-02-24T21:14:13.372Z,48.20
2019-02-24T21:16:40.917Z,47.90
2019-02-24T21:19:08.336Z,47.90
2019-02-24T21:21:35.876Z,48.10
2019-02-24T21:24:04.244Z,47.60
2019-02-24T21:26:31.804Z,47.20
2019-02-24T21:28:59.219Z,47.20
2019-02-24T21:31:27.006Z,47.00
2019-02-24T21:33:54.968Z,46.40
2019-02-24T21:36:22.385Z,46.70
2019-02-24T21:38:49.848Z,46.70
2019-02-24T21:41:17.263Z,46.80
2019-02-24T21:43:44.627Z,46.20
2019-02-24T21:46:12.108Z,46.80
2019-02-24T21:48:39.866Z,46.80
2019-02-24T21:51:07.325Z,46.60
2019-02-24T21:53:36.184Z,46.70
2019-02-24T21:56:03.820Z,46.90
2019-02-24T21:58:31.738Z,47.00
2019-02-24T22:00:59.328Z,46.80
2019-02-24T22:03:26.761Z,46.60
2019-02-24T22:05:54.555Z,46.70
2019-02-24T22:08:21.960Z,47.10
2019-02-24T22:10:49.306Z,46.90
2019-02-24T22:13:16.749Z,47.20
2019-02-24T22:15:44.150Z,47.10
2019-02-24T22:18:11.545Z,47.30
2019-02-24T22:20:38.941Z,46.70
2019-02-24T22:23:06.294Z,46.60
2019-02-24T22:25:33.626Z,47.30
2019-02-24T22:28:01.007Z,47.20
2019-02-24T22:30:28.457Z,47.10
2019-02-24T22:32:55.860Z,46.90
2019-02-24T22:35:23.565Z,47.00
2019-02-24T22:37:50.986Z,48.00
2019-02-24T22:40:18.411Z,48.30
2019-02-24T22:42:45.907Z,47.50
2019-02-24T22:45:16.567Z,47.50
2019-02-24T22:47:43.538Z,47.70
2019-02-24T22:50:11.612Z,48.00
2019-02-24T22:52:38.913Z,48.50
2019-02-24T22:55:06.356Z,48.80
2019-02-24T22:57:33.778Z,49.10
2019-02-24T23:00:01.208Z,49.80
2019-02-24T23:02:28.522Z,49.70
2019-02-24T23:04:55.848Z,49.40
2019-02-24T23:07:23.241Z,49.10
2019-02-24T23:09:50.534Z,49.20
2019-02-24T23:12:17.867Z,49.00
2019-02-24T23:14:45.286Z,49.50
2019-02-24T23:17:12.599Z,49.40
2019-02-24T23:19:39.928Z,49.30
2019-02-24T23:22:07.232Z,49.10
2019-02-24T23:24:34.654Z,49.30
2019-02-24T23:27:01.979Z,49.40
2019-02-24T23:29:29.394Z,49.20
2019-02-24T23:31:56.723Z,49.30
2019-02-24T23:34:24.050Z,49.50
2019-02-24T23:36:51.480Z,49.50
2019-02-24T23:39:18.994Z,49.80
2019-02-24T23:41:46.540Z,49.90
2019-02-24T23:44:14.186Z,49.90
2019-02-24T23:46:41.507Z,50.20
2019-02-24T23:49:08.827Z,50.10
2019-02-24T23:51:36.242Z,50.30
2019-02-24T23:54:04.045Z,50.30
2019-02-24T23:56:31.374Z,50.10
2019-02-24T23:58:58.682Z,49.90
